sensor_id;sensor_type;location;lat;lon;timestamp;P1;durP1;ratioP1;P2;durP2;ratioP2
64957;SDS011;51486;50.232;19.208;2023-02-26T00:02:22;7.47;;;3.63;;
64957;SDS011;51486;50.232;19.208;2023-02-26T00:05:08;6.67;;;4.07;;
64957;SDS011;51486;50.232;19.208;2023-02-26T00:07:54;7.87;;;3.90;;
64957;SDS011;51486;50.232;19.208;2023-02-26T00:10:40;7.27;;;3.70;;
64957;SDS011;51486;50.232;19.208;2023-02-26T00:13:26;6.70;;;3.50;;
64957;SDS011;51486;50.232;19.208;2023-02-26T00:16:34;8.73;;;4.40;;
64957;SDS011;51486;50.232;19.208;2023-02-26T00:19:19;9.53;;;4.20;;
64957;SDS011;51486;50.232;19.208;2023-02-26T00:22:05;7.97;;;3.73;;
64957;SDS011;51486;50.232;19.208;2023-02-26T00:24:51;9.73;;;3.73;;
64957;SDS011;51486;50.232;19.208;2023-02-26T00:27:37;8.93;;;3.87;;
64957;SDS011;51486;50.232;19.208;2023-02-26T00:30:24;10.53;;;3.77;;
64957;SDS011;51486;50.232;19.208;2023-02-26T00:33:10;8.23;;;3.17;;
64957;SDS011;51486;50.232;19.208;2023-02-26T00:35:59;5.87;;;2.87;;
64957;SDS011;51486;50.232;19.208;2023-02-26T00:41:57;8.03;;;3.23;;
64957;SDS011;51486;50.232;19.208;2023-02-26T00:44:43;8.87;;;3.77;;
64957;SDS011;51486;50.232;19.208;2023-02-26T00:47:49;8.33;;;3.30;;
64957;SDS011;51486;50.232;19.208;2023-02-26T00:50:58;8.03;;;3.10;;
64957;SDS011;51486;50.232;19.208;2023-02-26T00:56:42;8.50;;;3.30;;
64957;SDS011;51486;50.232;19.208;2023-02-26T00:59:27;6.80;;;3.13;;
64957;SDS011;51486;50.232;19.208;2023-02-26T01:02:13;7.43;;;3.10;;
64957;SDS011;51486;50.232;19.208;2023-02-26T01:04:59;6.77;;;2.33;;
64957;SDS011;51486;50.232;19.208;2023-02-26T01:10:38;7.27;;;3.23;;
64957;SDS011;51486;50.232;19.208;2023-02-26T01:13:24;8.47;;;3.73;;
64957;SDS011;51486;50.232;19.208;2023-02-26T01:16:11;11.53;;;4.20;;
64957;SDS011;51486;50.232;19.208;2023-02-26T01:19:04;7.10;;;3.17;;
64957;SDS011;51486;50.232;19.208;2023-02-26T01:22:04;5.97;;;3.30;;
64957;SDS011;51486;50.232;19.208;2023-02-26T01:24:57;6.33;;;2.97;;
64957;SDS011;51486;50.232;19.208;2023-02-26T01:27:47;6.40;;;3.53;;
64957;SDS011;51486;50.232;19.208;2023-02-26T01:30:33;7.03;;;3.40;;
64957;SDS011;51486;50.232;19.208;2023-02-26T01:33:29;6.37;;;3.17;;
64957;SDS011;51486;50.232;19.208;2023-02-26T01:36:23;6.73;;;2.90;;
64957;SDS011;51486;50.232;19.208;2023-02-26T01:39:17;9.47;;;4.20;;
64957;SDS011;51486;50.232;19.208;2023-02-26T01:47:47;5.20;;;3.50;;
64957;SDS011;51486;50.232;19.208;2023-02-26T01:50:38;8.43;;;3.57;;
64957;SDS011;51486;50.232;19.208;2023-02-26T01:53:25;6.33;;;2.77;;
64957;SDS011;51486;50.232;19.208;2023-02-26T01:56:15;5.67;;;2.73;;
64957;SDS011;51486;50.232;19.208;2023-02-26T01:59:03;5.73;;;3.20;;
64957;SDS011;51486;50.232;19.208;2023-02-26T02:01:51;11.33;;;3.07;;
64957;SDS011;51486;50.232;19.208;2023-02-26T02:04:38;4.03;;;2.87;;
64957;SDS011;51486;50.232;19.208;2023-02-26T02:07:26;6.83;;;3.57;;
64957;SDS011;51486;50.232;19.208;2023-02-26T02:10:11;7.20;;;3.77;;
64957;SDS011;51486;50.232;19.208;2023-02-26T02:15:59;6.17;;;3.37;;
64957;SDS011;51486;50.232;19.208;2023-02-26T02:18:59;5.10;;;3.10;;
64957;SDS011;51486;50.232;19.208;2023-02-26T02:21:53;7.07;;;2.80;;
64957;SDS011;51486;50.232;19.208;2023-02-26T02:31:10;8.83;;;3.23;;
64957;SDS011;51486;50.232;19.208;2023-02-26T02:34:02;7.03;;;3.57;;
64957;SDS011;51486;50.232;19.208;2023-02-26T02:37:04;4.57;;;2.70;;
64957;SDS011;51486;50.232;19.208;2023-02-26T02:40:04;8.10;;;2.97;;
64957;SDS011;51486;50.232;19.208;2023-02-26T02:43:03;6.47;;;3.37;;
64957;SDS011;51486;50.232;19.208;2023-02-26T02:46:04;5.30;;;3.10;;
64957;SDS011;51486;50.232;19.208;2023-02-26T02:48:53;7.73;;;3.17;;
64957;SDS011;51486;50.232;19.208;2023-02-26T02:51:48;9.07;;;3.17;;
64957;SDS011;51486;50.232;19.208;2023-02-26T02:54:38;7.13;;;2.83;;
64957;SDS011;51486;50.232;19.208;2023-02-26T02:57:34;4.37;;;2.57;;
64957;SDS011;51486;50.232;19.208;2023-02-26T03:00:23;4.20;;;2.50;;
64957;SDS011;51486;50.232;19.208;2023-02-26T03:03:14;7.60;;;2.90;;
64957;SDS011;51486;50.232;19.208;2023-02-26T03:06:02;6.57;;;2.43;;
64957;SDS011;51486;50.232;19.208;2023-02-26T03:08:48;4.27;;;2.20;;
64957;SDS011;51486;50.232;19.208;2023-02-26T03:11:36;4.63;;;2.20;;
64957;SDS011;51486;50.232;19.208;2023-02-26T03:14:22;5.67;;;2.83;;
64957;SDS011;51486;50.232;19.208;2023-02-26T03:17:16;6.77;;;2.53;;
64957;SDS011;51486;50.232;19.208;2023-02-26T03:20:16;4.67;;;2.40;;
64957;SDS011;51486;50.232;19.208;2023-02-26T03:23:11;4.43;;;1.80;;
64957;SDS011;51486;50.232;19.208;2023-02-26T03:26:07;3.67;;;2.10;;
64957;SDS011;51486;50.232;19.208;2023-02-26T03:29:04;3.30;;;1.87;;
64957;SDS011;51486;50.232;19.208;2023-02-26T03:31:55;2.90;;;2.00;;
64957;SDS011;51486;50.232;19.208;2023-02-26T03:34:47;4.30;;;2.60;;
64957;SDS011;51486;50.232;19.208;2023-02-26T03:37:39;4.53;;;2.43;;
64957;SDS011;51486;50.232;19.208;2023-02-26T03:40:46;5.93;;;2.70;;
64957;SDS011;51486;50.232;19.208;2023-02-26T03:43:37;4.80;;;2.03;;
64957;SDS011;51486;50.232;19.208;2023-02-26T03:46:38;4.37;;;2.00;;
64957;SDS011;51486;50.232;19.208;2023-02-26T03:49:30;6.97;;;2.30;;
64957;SDS011;51486;50.232;19.208;2023-02-26T03:52:19;6.23;;;2.57;;
64957;SDS011;51486;50.232;19.208;2023-02-26T03:55:13;4.60;;;2.50;;
64957;SDS011;51486;50.232;19.208;2023-02-26T03:58:10;4.63;;;2.27;;
64957;SDS011;51486;50.232;19.208;2023-02-26T04:00:58;5.20;;;2.53;;
64957;SDS011;51486;50.232;19.208;2023-02-26T04:03:52;6.13;;;2.07;;
64957;SDS011;51486;50.232;19.208;2023-02-26T04:06:45;5.53;;;1.90;;
64957;SDS011;51486;50.232;19.208;2023-02-26T04:09:32;5.67;;;2.03;;
64957;SDS011;51486;50.232;19.208;2023-02-26T04:12:21;2.87;;;2.00;;
64957;SDS011;51486;50.232;19.208;2023-02-26T04:15:08;5.27;;;2.30;;
64957;SDS011;51486;50.232;19.208;2023-02-26T04:17:55;7.67;;;2.50;;
64957;SDS011;51486;50.232;19.208;2023-02-26T04:20:40;5.37;;;2.40;;
64957;SDS011;51486;50.232;19.208;2023-02-26T04:23:26;2.47;;;1.87;;
64957;SDS011;51486;50.232;19.208;2023-02-26T04:26:12;9.93;;;2.63;;
64957;SDS011;51486;50.232;19.208;2023-02-26T04:28:58;4.97;;;2.57;;
64957;SDS011;51486;50.232;19.208;2023-02-26T04:31:44;3.93;;;2.40;;
64957;SDS011;51486;50.232;19.208;2023-02-26T04:34:30;5.60;;;1.87;;
64957;SDS011;51486;50.232;19.208;2023-02-26T04:37:15;2.30;;;1.53;;
64957;SDS011;51486;50.232;19.208;2023-02-26T04:40:01;5.80;;;2.50;;
64957;SDS011;51486;50.232;19.208;2023-02-26T04:42:48;3.63;;;1.80;;
64957;SDS011;51486;50.232;19.208;2023-02-26T04:45:34;5.13;;;1.60;;
64957;SDS011;51486;50.232;19.208;2023-02-26T04:48:19;2.97;;;1.90;;
64957;SDS011;51486;50.232;19.208;2023-02-26T04:51:05;4.20;;;1.80;;
64957;SDS011;51486;50.232;19.208;2023-02-26T04:53:51;3.20;;;1.50;;
64957;SDS011;51486;50.232;19.208;2023-02-26T04:56:37;2.73;;;1.57;;
64957;SDS011;51486;50.232;19.208;2023-02-26T04:59:22;3.63;;;1.90;;
64957;SDS011;51486;50.232;19.208;2023-02-26T05:02:08;3.60;;;1.90;;
64957;SDS011;51486;50.232;19.208;2023-02-26T05:04:54;3.67;;;2.03;;
64957;SDS011;51486;50.232;19.208;2023-02-26T05:07:40;2.97;;;1.90;;
64957;SDS011;51486;50.232;19.208;2023-02-26T05:10:25;4.57;;;1.83;;
64957;SDS011;51486;50.232;19.208;2023-02-26T05:13:11;3.27;;;2.17;;
64957;SDS011;51486;50.232;19.208;2023-02-26T05:15:57;6.70;;;2.60;;
64957;SDS011;51486;50.232;19.208;2023-02-26T05:18:43;6.53;;;2.30;;
64957;SDS011;51486;50.232;19.208;2023-02-26T05:21:28;4.53;;;2.27;;
64957;SDS011;51486;50.232;19.208;2023-02-26T05:24:15;7.93;;;2.07;;
64957;SDS011;51486;50.232;19.208;2023-02-26T05:27:01;3.23;;;1.43;;
64957;SDS011;51486;50.232;19.208;2023-02-26T05:29:46;4.43;;;2.43;;
64957;SDS011;51486;50.232;19.208;2023-02-26T05:32:32;3.37;;;2.20;;
64957;SDS011;51486;50.232;19.208;2023-02-26T05:35:18;4.77;;;1.53;;
64957;SDS011;51486;50.232;19.208;2023-02-26T05:38:04;4.43;;;2.27;;
64957;SDS011;51486;50.232;19.208;2023-02-26T05:40:50;3.40;;;1.70;;
64957;SDS011;51486;50.232;19.208;2023-02-26T05:43:39;5.20;;;2.30;;
64957;SDS011;51486;50.232;19.208;2023-02-26T05:46:26;4.70;;;2.50;;
64957;SDS011;51486;50.232;19.208;2023-02-26T05:49:11;5.83;;;2.97;;
64957;SDS011;51486;50.232;19.208;2023-02-26T05:51:57;5.97;;;2.70;;
64957;SDS011;51486;50.232;19.208;2023-02-26T05:54:43;11.90;;;2.93;;
64957;SDS011;51486;50.232;19.208;2023-02-26T05:57:29;5.10;;;2.67;;
64957;SDS011;51486;50.232;19.208;2023-02-26T06:00:15;4.03;;;2.40;;
64957;SDS011;51486;50.232;19.208;2023-02-26T06:03:01;6.53;;;2.33;;
64957;SDS011;51486;50.232;19.208;2023-02-26T06:05:46;4.70;;;2.43;;
64957;SDS011;51486;50.232;19.208;2023-02-26T06:08:33;6.37;;;3.00;;
64957;SDS011;51486;50.232;19.208;2023-02-26T06:11:18;5.90;;;2.13;;
64957;SDS011;51486;50.232;19.208;2023-02-26T06:14:04;5.83;;;2.73;;
64957;SDS011;51486;50.232;19.208;2023-02-26T06:16:50;3.63;;;2.37;;
64957;SDS011;51486;50.232;19.208;2023-02-26T06:19:36;6.13;;;3.13;;
64957;SDS011;51486;50.232;19.208;2023-02-26T06:22:21;5.33;;;2.80;;
64957;SDS011;51486;50.232;19.208;2023-02-26T06:25:07;4.10;;;2.60;;
64957;SDS011;51486;50.232;19.208;2023-02-26T06:27:53;5.33;;;2.67;;
64957;SDS011;51486;50.232;19.208;2023-02-26T06:30:39;8.70;;;3.40;;
64957;SDS011;51486;50.232;19.208;2023-02-26T06:33:25;11.30;;;3.60;;
64957;SDS011;51486;50.232;19.208;2023-02-26T06:36:11;12.57;;;3.10;;
64957;SDS011;51486;50.232;19.208;2023-02-26T06:38:57;5.10;;;3.37;;
64957;SDS011;51486;50.232;19.208;2023-02-26T06:41:42;6.83;;;2.77;;
64957;SDS011;51486;50.232;19.208;2023-02-26T06:44:28;7.40;;;2.83;;
64957;SDS011;51486;50.232;19.208;2023-02-26T06:47:14;6.20;;;3.20;;
64957;SDS011;51486;50.232;19.208;2023-02-26T06:49:59;5.70;;;3.00;;
64957;SDS011;51486;50.232;19.208;2023-02-26T06:52:47;5.87;;;2.70;;
64957;SDS011;51486;50.232;19.208;2023-02-26T06:55:33;5.17;;;2.93;;
64957;SDS011;51486;50.232;19.208;2023-02-26T06:58:19;6.87;;;3.20;;
64957;SDS011;51486;50.232;19.208;2023-02-26T07:01:05;7.13;;;3.03;;
64957;SDS011;51486;50.232;19.208;2023-02-26T07:03:50;5.60;;;2.93;;
64957;SDS011;51486;50.232;19.208;2023-02-26T07:06:36;9.43;;;3.53;;
64957;SDS011;51486;50.232;19.208;2023-02-26T07:09:22;5.67;;;3.13;;
64957;SDS011;51486;50.232;19.208;2023-02-26T07:12:08;9.60;;;3.87;;
64957;SDS011;51486;50.232;19.208;2023-02-26T07:14:53;8.27;;;3.47;;
64957;SDS011;51486;50.232;19.208;2023-02-26T07:17:39;7.57;;;3.67;;
64957;SDS011;51486;50.232;19.208;2023-02-26T07:20:25;5.77;;;3.33;;
64957;SDS011;51486;50.232;19.208;2023-02-26T07:23:11;5.40;;;3.13;;
64957;SDS011;51486;50.232;19.208;2023-02-26T07:25:57;5.07;;;2.40;;
64957;SDS011;51486;50.232;19.208;2023-02-26T07:28:43;10.93;;;2.67;;
64957;SDS011;51486;50.232;19.208;2023-02-26T07:31:29;8.17;;;2.83;;
64957;SDS011;51486;50.232;19.208;2023-02-26T07:34:14;7.10;;;3.13;;
64957;SDS011;51486;50.232;19.208;2023-02-26T07:37:00;7.57;;;3.17;;
64957;SDS011;51486;50.232;19.208;2023-02-26T07:39:46;5.60;;;2.87;;
64957;SDS011;51486;50.232;19.208;2023-02-26T07:42:32;5.30;;;2.87;;
64957;SDS011;51486;50.232;19.208;2023-02-26T07:45:17;5.13;;;2.00;;
64957;SDS011;51486;50.232;19.208;2023-02-26T07:48:06;6.33;;;2.37;;
64957;SDS011;51486;50.232;19.208;2023-02-26T07:50:52;3.73;;;2.10;;
64957;SDS011;51486;50.232;19.208;2023-02-26T07:53:39;7.43;;;2.43;;
64957;SDS011;51486;50.232;19.208;2023-02-26T07:56:24;2.40;;;1.80;;
64957;SDS011;51486;50.232;19.208;2023-02-26T07:59:10;3.37;;;1.57;;
64957;SDS011;51486;50.232;19.208;2023-02-26T08:01:56;3.47;;;2.17;;
64957;SDS011;51486;50.232;19.208;2023-02-26T08:04:42;3.40;;;1.50;;
64957;SDS011;51486;50.232;19.208;2023-02-26T08:07:28;6.13;;;1.70;;
64957;SDS011;51486;50.232;19.208;2023-02-26T08:10:13;3.93;;;1.93;;
64957;SDS011;51486;50.232;19.208;2023-02-26T08:12:59;4.57;;;1.70;;
64957;SDS011;51486;50.232;19.208;2023-02-26T08:15:46;6.33;;;2.03;;
64957;SDS011;51486;50.232;19.208;2023-02-26T08:18:32;6.40;;;1.73;;
64957;SDS011;51486;50.232;19.208;2023-02-26T08:21:18;12.17;;;2.20;;
64957;SDS011;51486;50.232;19.208;2023-02-26T08:24:03;3.57;;;2.03;;
64957;SDS011;51486;50.232;19.208;2023-02-26T08:26:49;3.50;;;2.10;;
64957;SDS011;51486;50.232;19.208;2023-02-26T08:29:36;6.47;;;2.60;;
64957;SDS011;51486;50.232;19.208;2023-02-26T08:32:21;4.03;;;2.00;;
64957;SDS011;51486;50.232;19.208;2023-02-26T08:35:08;4.07;;;2.40;;
64957;SDS011;51486;50.232;19.208;2023-02-26T08:37:54;11.97;;;3.07;;
64957;SDS011;51486;50.232;19.208;2023-02-26T08:40:40;6.10;;;2.10;;
64957;SDS011;51486;50.232;19.208;2023-02-26T08:43:26;5.43;;;2.07;;
64957;SDS011;51486;50.232;19.208;2023-02-26T08:46:11;3.57;;;1.93;;
64957;SDS011;51486;50.232;19.208;2023-02-26T08:48:57;1.83;;;1.17;;
64957;SDS011;51486;50.232;19.208;2023-02-26T08:51:43;3.53;;;1.90;;
64957;SDS011;51486;50.232;19.208;2023-02-26T08:54:28;3.27;;;1.67;;
64957;SDS011;51486;50.232;19.208;2023-02-26T08:57:14;3.20;;;1.60;;
64957;SDS011;51486;50.232;19.208;2023-02-26T09:00:00;4.53;;;2.07;;
64957;SDS011;51486;50.232;19.208;2023-02-26T09:02:45;3.17;;;1.70;;
64957;SDS011;51486;50.232;19.208;2023-02-26T09:05:31;9.03;;;1.97;;
64957;SDS011;51486;50.232;19.208;2023-02-26T09:08:17;3.60;;;1.80;;
64957;SDS011;51486;50.232;19.208;2023-02-26T09:11:04;2.33;;;1.47;;
64957;SDS011;51486;50.232;19.208;2023-02-26T09:13:50;2.10;;;1.13;;
64957;SDS011;51486;50.232;19.208;2023-02-26T09:16:36;3.87;;;1.50;;
64957;SDS011;51486;50.232;19.208;2023-02-26T09:19:23;2.17;;;1.40;;
64957;SDS011;51486;50.232;19.208;2023-02-26T09:22:08;3.43;;;1.57;;
64957;SDS011;51486;50.232;19.208;2023-02-26T09:24:54;5.33;;;2.53;;
64957;SDS011;51486;50.232;19.208;2023-02-26T09:27:40;8.93;;;2.23;;
64957;SDS011;51486;50.232;19.208;2023-02-26T09:30:25;3.37;;;2.03;;
64957;SDS011;51486;50.232;19.208;2023-02-26T09:33:11;2.53;;;1.70;;
64957;SDS011;51486;50.232;19.208;2023-02-26T09:35:57;5.10;;;1.87;;
64957;SDS011;51486;50.232;19.208;2023-02-26T09:38:43;3.13;;;1.80;;
64957;SDS011;51486;50.232;19.208;2023-02-26T09:41:34;5.80;;;2.67;;
64957;SDS011;51486;50.232;19.208;2023-02-26T09:44:26;4.17;;;2.23;;
64957;SDS011;51486;50.232;19.208;2023-02-26T09:47:37;4.30;;;2.13;;
64957;SDS011;51486;50.232;19.208;2023-02-26T09:53:28;7.57;;;2.53;;
64957;SDS011;51486;50.232;19.208;2023-02-26T09:56:20;3.17;;;2.00;;
64957;SDS011;51486;50.232;19.208;2023-02-26T09:59:09;4.73;;;2.13;;
64957;SDS011;51486;50.232;19.208;2023-02-26T10:02:11;3.83;;;1.93;;
64957;SDS011;51486;50.232;19.208;2023-02-26T10:08:04;4.27;;;1.33;;
64957;SDS011;51486;50.232;19.208;2023-02-26T10:13:48;4.70;;;1.70;;
64957;SDS011;51486;50.232;19.208;2023-02-26T10:16:38;3.17;;;1.80;;
64957;SDS011;51486;50.232;19.208;2023-02-26T10:19:29;5.23;;;1.80;;
64957;SDS011;51486;50.232;19.208;2023-02-26T10:22:27;3.57;;;1.57;;
64957;SDS011;51486;50.232;19.208;2023-02-26T10:25:23;2.33;;;1.23;;
64957;SDS011;51486;50.232;19.208;2023-02-26T10:30:59;2.67;;;0.97;;
64957;SDS011;51486;50.232;19.208;2023-02-26T10:33:59;2.10;;;1.27;;
64957;SDS011;51486;50.232;19.208;2023-02-26T10:37:13;4.13;;;0.90;;
64957;SDS011;51486;50.232;19.208;2023-02-26T10:43:21;2.67;;;0.93;;
64957;SDS011;51486;50.232;19.208;2023-02-26T10:52:41;2.73;;;1.23;;
64957;SDS011;51486;50.232;19.208;2023-02-26T10:55:33;3.73;;;1.20;;
64957;SDS011;51486;50.232;19.208;2023-02-26T10:58:25;2.97;;;1.03;;
64957;SDS011;51486;50.232;19.208;2023-02-26T11:01:18;1.90;;;1.43;;
64957;SDS011;51486;50.232;19.208;2023-02-26T11:04:16;1.57;;;1.00;;
64957;SDS011;51486;50.232;19.208;2023-02-26T11:07:04;2.50;;;1.20;;
64957;SDS011;51486;50.232;19.208;2023-02-26T11:09:51;2.27;;;1.30;;
64957;SDS011;51486;50.232;19.208;2023-02-26T11:12:36;2.73;;;1.33;;
64957;SDS011;51486;50.232;19.208;2023-02-26T11:15:24;3.17;;;1.73;;
64957;SDS011;51486;50.232;19.208;2023-02-26T11:18:12;3.53;;;1.47;;
64957;SDS011;51486;50.232;19.208;2023-02-26T11:21:03;3.50;;;1.60;;
64957;SDS011;51486;50.232;19.208;2023-02-26T11:23:53;2.43;;;1.53;;
64957;SDS011;51486;50.232;19.208;2023-02-26T11:26:46;3.57;;;1.30;;
64957;SDS011;51486;50.232;19.208;2023-02-26T11:29:36;1.53;;;0.90;;
64957;SDS011;51486;50.232;19.208;2023-02-26T11:32:30;5.17;;;1.87;;
64957;SDS011;51486;50.232;19.208;2023-02-26T11:35:22;2.07;;;1.13;;
64957;SDS011;51486;50.232;19.208;2023-02-26T11:38:11;2.33;;;1.27;;
64957;SDS011;51486;50.232;19.208;2023-02-26T11:41:02;5.30;;;1.80;;
64957;SDS011;51486;50.232;19.208;2023-02-26T11:44:11;3.00;;;1.67;;
64957;SDS011;51486;50.232;19.208;2023-02-26T11:46:58;1.67;;;1.13;;
64957;SDS011;51486;50.232;19.208;2023-02-26T11:49:52;3.87;;;1.40;;
64957;SDS011;51486;50.232;19.208;2023-02-26T11:52:40;3.00;;;1.43;;
64957;SDS011;51486;50.232;19.208;2023-02-26T11:55:28;4.20;;;1.47;;
64957;SDS011;51486;50.232;19.208;2023-02-26T11:58:18;2.43;;;1.10;;
64957;SDS011;51486;50.232;19.208;2023-02-26T12:01:07;1.60;;;1.23;;
64957;SDS011;51486;50.232;19.208;2023-02-26T12:03:57;2.70;;;1.30;;
64957;SDS011;51486;50.232;19.208;2023-02-26T12:06:45;2.20;;;1.30;;
64957;SDS011;51486;50.232;19.208;2023-02-26T12:09:34;2.87;;;1.23;;
64957;SDS011;51486;50.232;19.208;2023-02-26T12:15:16;3.73;;;1.67;;
64957;SDS011;51486;50.232;19.208;2023-02-26T12:33:24;6.10;;;1.57;;
64957;SDS011;51486;50.232;19.208;2023-02-26T12:36:30;2.20;;;1.43;;
64957;SDS011;51486;50.232;19.208;2023-02-26T12:39:33;7.80;;;1.37;;
64957;SDS011;51486;50.232;19.208;2023-02-26T13:04:32;6.47;;;1.90;;
64957;SDS011;51486;50.232;19.208;2023-02-26T13:10:41;3.47;;;1.60;;
64957;SDS011;51486;50.232;19.208;2023-02-26T13:19:45;5.57;;;2.60;;
64957;SDS011;51486;50.232;19.208;2023-02-26T13:22:37;4.07;;;2.10;;
64957;SDS011;51486;50.232;19.208;2023-02-26T13:25:35;4.13;;;2.30;;
64957;SDS011;51486;50.232;19.208;2023-02-26T13:31:26;4.00;;;2.40;;
64957;SDS011;51486;50.232;19.208;2023-02-26T13:34:32;6.93;;;2.33;;
64957;SDS011;51486;50.232;19.208;2023-02-26T13:37:34;5.30;;;2.33;;
64957;SDS011;51486;50.232;19.208;2023-02-26T13:47:26;6.23;;;2.83;;
64957;SDS011;51486;50.232;19.208;2023-02-26T13:53:02;2.50;;;1.67;;
64957;SDS011;51486;50.232;19.208;2023-02-26T13:55:51;7.97;;;3.07;;
64957;SDS011;51486;50.232;19.208;2023-02-26T13:58:38;6.57;;;3.10;;
64957;SDS011;51486;50.232;19.208;2023-02-26T14:01:33;7.73;;;2.80;;
64957;SDS011;51486;50.232;19.208;2023-02-26T14:04:48;2.87;;;1.50;;
64957;SDS011;51486;50.232;19.208;2023-02-26T14:08:09;6.10;;;2.20;;
64957;SDS011;51486;50.232;19.208;2023-02-26T14:10:53;3.63;;;2.03;;
64957;SDS011;51486;50.232;19.208;2023-02-26T14:22:40;3.17;;;2.23;;
64957;SDS011;51486;50.232;19.208;2023-02-26T14:25:35;4.07;;;2.33;;
64957;SDS011;51486;50.232;19.208;2023-02-26T14:34:12;6.20;;;2.07;;
64957;SDS011;51486;50.232;19.208;2023-02-26T14:37:00;5.30;;;2.63;;
64957;SDS011;51486;50.232;19.208;2023-02-26T14:40:24;4.40;;;2.40;;
64957;SDS011;51486;50.232;19.208;2023-02-26T14:43:13;6.47;;;2.60;;
64957;SDS011;51486;50.232;19.208;2023-02-26T14:46:03;5.33;;;2.90;;
64957;SDS011;51486;50.232;19.208;2023-02-26T14:48:51;6.73;;;2.17;;
64957;SDS011;51486;50.232;19.208;2023-02-26T15:07:26;4.57;;;2.33;;
64957;SDS011;51486;50.232;19.208;2023-02-26T15:13:36;7.10;;;2.47;;
64957;SDS011;51486;50.232;19.208;2023-02-26T15:25:46;4.93;;;2.30;;
64957;SDS011;51486;50.232;19.208;2023-02-26T15:28:34;9.37;;;3.00;;
64957;SDS011;51486;50.232;19.208;2023-02-26T15:32:14;5.03;;;2.27;;
64957;SDS011;51486;50.232;19.208;2023-02-26T15:35:03;5.47;;;2.27;;
64957;SDS011;51486;50.232;19.208;2023-02-26T15:37:56;7.77;;;3.07;;
64957;SDS011;51486;50.232;19.208;2023-02-26T15:40:45;5.97;;;2.10;;
64957;SDS011;51486;50.232;19.208;2023-02-26T15:43:33;4.10;;;1.93;;
64957;SDS011;51486;50.232;19.208;2023-02-26T15:46:19;6.20;;;2.60;;
64957;SDS011;51486;50.232;19.208;2023-02-26T15:52:02;5.30;;;2.53;;
64957;SDS011;51486;50.232;19.208;2023-02-26T15:54:51;4.57;;;2.53;;
64957;SDS011;51486;50.232;19.208;2023-02-26T15:57:39;5.60;;;2.93;;
64957;SDS011;51486;50.232;19.208;2023-02-26T16:00:25;4.80;;;2.80;;
64957;SDS011;51486;50.232;19.208;2023-02-26T16:03:11;8.47;;;3.13;;
64957;SDS011;51486;50.232;19.208;2023-02-26T16:05:57;6.63;;;3.10;;
64957;SDS011;51486;50.232;19.208;2023-02-26T16:08:43;7.30;;;2.87;;
64957;SDS011;51486;50.232;19.208;2023-02-26T16:11:33;6.13;;;3.53;;
64957;SDS011;51486;50.232;19.208;2023-02-26T16:14:21;11.30;;;3.80;;
64957;SDS011;51486;50.232;19.208;2023-02-26T16:17:17;9.23;;;4.50;;
64957;SDS011;51486;50.232;19.208;2023-02-26T16:20:16;13.47;;;3.80;;
64957;SDS011;51486;50.232;19.208;2023-02-26T16:23:05;11.87;;;3.90;;
64957;SDS011;51486;50.232;19.208;2023-02-26T16:25:58;11.20;;;4.20;;
64957;SDS011;51486;50.232;19.208;2023-02-26T16:28:46;13.93;;;4.87;;
64957;SDS011;51486;50.232;19.208;2023-02-26T16:31:33;8.90;;;4.13;;
64957;SDS011;51486;50.232;19.208;2023-02-26T16:34:23;11.60;;;4.50;;
64957;SDS011;51486;50.232;19.208;2023-02-26T16:37:31;10.57;;;3.97;;
64957;SDS011;51486;50.232;19.208;2023-02-26T16:40:39;17.17;;;4.30;;
64957;SDS011;51486;50.232;19.208;2023-02-26T16:49:33;10.20;;;4.30;;
64957;SDS011;51486;50.232;19.208;2023-02-26T16:52:21;12.50;;;4.73;;
64957;SDS011;51486;50.232;19.208;2023-02-26T16:55:12;11.73;;;5.13;;
64957;SDS011;51486;50.232;19.208;2023-02-26T16:58:03;9.93;;;4.90;;
64957;SDS011;51486;50.232;19.208;2023-02-26T17:00:54;13.93;;;5.47;;
64957;SDS011;51486;50.232;19.208;2023-02-26T17:03:47;11.77;;;4.33;;
64957;SDS011;51486;50.232;19.208;2023-02-26T17:06:37;8.40;;;3.90;;
64957;SDS011;51486;50.232;19.208;2023-02-26T17:12:16;9.10;;;4.13;;
64957;SDS011;51486;50.232;19.208;2023-02-26T17:15:12;8.27;;;4.13;;
64957;SDS011;51486;50.232;19.208;2023-02-26T17:18:14;10.43;;;4.60;;
64957;SDS011;51486;50.232;19.208;2023-02-26T17:20:59;7.90;;;4.37;;
64957;SDS011;51486;50.232;19.208;2023-02-26T17:23:48;10.23;;;4.53;;
64957;SDS011;51486;50.232;19.208;2023-02-26T17:26:35;8.97;;;4.37;;
64957;SDS011;51486;50.232;19.208;2023-02-26T17:29:23;14.40;;;5.10;;
64957;SDS011;51486;50.232;19.208;2023-02-26T17:32:23;14.03;;;5.93;;
64957;SDS011;51486;50.232;19.208;2023-02-26T17:35:12;15.33;;;6.13;;
64957;SDS011;51486;50.232;19.208;2023-02-26T17:37:58;18.13;;;5.70;;
64957;SDS011;51486;50.232;19.208;2023-02-26T17:40:45;15.80;;;5.67;;
64957;SDS011;51486;50.232;19.208;2023-02-26T17:43:31;19.97;;;5.90;;
64957;SDS011;51486;50.232;19.208;2023-02-26T17:46:17;15.10;;;6.10;;
64957;SDS011;51486;50.232;19.208;2023-02-26T17:49:03;13.23;;;5.50;;
64957;SDS011;51486;50.232;19.208;2023-02-26T17:51:49;12.33;;;5.87;;
64957;SDS011;51486;50.232;19.208;2023-02-26T17:54:38;15.07;;;6.13;;
64957;SDS011;51486;50.232;19.208;2023-02-26T17:57:24;12.90;;;5.47;;
64957;SDS011;51486;50.232;19.208;2023-02-26T18:00:13;13.13;;;5.57;;
64957;SDS011;51486;50.232;19.208;2023-02-26T18:03:00;16.67;;;6.27;;
64957;SDS011;51486;50.232;19.208;2023-02-26T18:05:46;11.90;;;5.40;;
64957;SDS011;51486;50.232;19.208;2023-02-26T18:08:33;9.70;;;4.53;;
64957;SDS011;51486;50.232;19.208;2023-02-26T18:11:19;12.87;;;5.87;;
64957;SDS011;51486;50.232;19.208;2023-02-26T18:14:06;12.53;;;5.07;;
64957;SDS011;51486;50.232;19.208;2023-02-26T18:16:53;12.63;;;5.17;;
64957;SDS011;51486;50.232;19.208;2023-02-26T18:19:40;9.63;;;4.93;;
64957;SDS011;51486;50.232;19.208;2023-02-26T18:22:26;13.60;;;5.60;;
64957;SDS011;51486;50.232;19.208;2023-02-26T18:25:12;13.33;;;5.43;;
64957;SDS011;51486;50.232;19.208;2023-02-26T18:27:58;12.63;;;5.73;;
64957;SDS011;51486;50.232;19.208;2023-02-26T18:30:44;10.40;;;4.80;;
64957;SDS011;51486;50.232;19.208;2023-02-26T18:33:30;14.03;;;5.23;;
64957;SDS011;51486;50.232;19.208;2023-02-26T18:36:23;11.13;;;5.20;;
64957;SDS011;51486;50.232;19.208;2023-02-26T18:39:18;11.67;;;5.17;;
64957;SDS011;51486;50.232;19.208;2023-02-26T18:42:04;19.37;;;5.13;;
64957;SDS011;51486;50.232;19.208;2023-02-26T18:44:50;15.50;;;5.30;;
64957;SDS011;51486;50.232;19.208;2023-02-26T18:47:37;11.37;;;4.30;;
64957;SDS011;51486;50.232;19.208;2023-02-26T18:50:23;11.80;;;5.47;;
64957;SDS011;51486;50.232;19.208;2023-02-26T18:53:10;8.23;;;4.43;;
64957;SDS011;51486;50.232;19.208;2023-02-26T19:06:33;7.80;;;4.23;;
64957;SDS011;51486;50.232;19.208;2023-02-26T19:09:19;15.30;;;5.37;;
64957;SDS011;51486;50.232;19.208;2023-02-26T19:12:05;12.87;;;5.57;;
64957;SDS011;51486;50.232;19.208;2023-02-26T19:14:52;11.90;;;5.53;;
64957;SDS011;51486;50.232;19.208;2023-02-26T19:17:38;9.63;;;5.10;;
64957;SDS011;51486;50.232;19.208;2023-02-26T19:20:24;18.40;;;6.40;;
64957;SDS011;51486;50.232;19.208;2023-02-26T19:23:10;10.87;;;5.03;;
64957;SDS011;51486;50.232;19.208;2023-02-26T19:25:57;14.53;;;5.70;;
64957;SDS011;51486;50.232;19.208;2023-02-26T19:28:42;13.33;;;5.30;;
64957;SDS011;51486;50.232;19.208;2023-02-26T19:31:29;12.20;;;6.47;;
64957;SDS011;51486;50.232;19.208;2023-02-26T19:34:15;10.33;;;5.13;;
64957;SDS011;51486;50.232;19.208;2023-02-26T19:37:01;13.40;;;5.97;;
64957;SDS011;51486;50.232;19.208;2023-02-26T19:39:46;10.43;;;4.93;;